createdAt,value
2022-11-27T00:01:16.298Z,84.37
2022-11-27T00:03:43.349Z,84.15
2022-11-27T00:06:13.493Z,84.27
2022-11-27T00:08:40.271Z,84.13
2022-11-27T00:11:08.449Z,84.23
2022-11-27T00:13:35.211Z,84.00
2022-11-27T00:16:04.217Z,84.15
2022-11-27T00:18:30.933Z,84.33
2022-11-27T00:21:02.927Z,84.04
2022-11-27T00:23:29.738Z,84.09
2022-11-27T00:25:56.465Z,84.21
2022-11-27T00:28:23.070Z,84.15
2022-11-27T00:30:51.256Z,84.11
2022-11-27T00:33:19.299Z,84.17
2022-11-27T00:35:45.964Z,84.22
2022-11-27T00:38:12.656Z,84.27
2022-11-27T00:40:39.469Z,84.08
2022-11-27T00:43:06.300Z,84.31
2022-11-27T00:45:35.515Z,83.97
2022-11-27T00:48:02.261Z,84.12
2022-11-27T00:50:32.164Z,84.09
2022-11-27T00:52:59.169Z,84.20
2022-11-27T00:55:26.245Z,84.11
2022-11-27T00:57:53.030Z,83.93
2022-11-27T01:00:20.360Z,84.02
2022-11-27T01:02:49.969Z,84.08
2022-11-27T01:05:16.909Z,84.03
2022-11-27T01:07:45.280Z,83.91
2022-11-27T01:10:12.383Z,83.86
2022-11-27T01:12:39.312Z,83.98
2022-11-27T01:15:06.870Z,83.88
2022-11-27T01:17:33.536Z,83.69
2022-11-27T01:20:00.675Z,83.89
2022-11-27T01:22:27.383Z,83.86
2022-11-27T01:24:55.469Z,83.81
2022-11-27T01:27:22.111Z,83.71
2022-11-27T01:29:48.824Z,83.76
2022-11-27T01:32:15.526Z,83.90
2022-11-27T01:34:43.300Z,83.73
2022-11-27T01:37:10.114Z,83.72
2022-11-27T01:39:36.966Z,83.75
2022-11-27T01:42:05.441Z,83.70
2022-11-27T01:44:51.053Z,83.61
2022-11-27T01:47:27.881Z,83.55
2022-11-27T01:49:59.606Z,83.88
2022-11-27T01:52:32.517Z,83.70
2022-11-27T01:55:06.034Z,83.48
2022-11-27T01:57:41.091Z,83.69
2022-11-27T02:00:12.970Z,83.76
2022-11-27T02:02:39.956Z,83.46
2022-11-27T02:05:07.398Z,83.62
2022-11-27T02:07:34.729Z,83.68
2022-11-27T02:10:02.171Z,83.76
2022-11-27T02:12:39.685Z,83.49
2022-11-27T02:15:14.118Z,83.59
2022-11-27T02:17:47.590Z,83.72
2022-11-27T02:20:27.709Z,83.61
2022-11-27T02:23:11.052Z,83.62
2022-11-27T02:25:49.453Z,83.48
2022-11-27T02:28:40.787Z,83.75
2022-11-27T02:31:16.250Z,83.39
2022-11-27T02:33:47.206Z,83.63
2022-11-27T02:36:22.628Z,83.75
2022-11-27T02:38:53.822Z,83.61
2022-11-27T02:41:25.706Z,83.72
2022-11-27T02:43:54.641Z,83.65
2022-11-27T02:46:23.509Z,83.68
2022-11-27T02:48:54.787Z,83.72
2022-11-27T02:51:26.819Z,83.55
2022-11-27T02:53:56.617Z,83.64
2022-11-27T02:56:28.102Z,83.72
2022-11-27T02:58:58.524Z,83.63
2022-11-27T03:01:30.821Z,83.67
2022-11-27T03:04:00.421Z,83.63
2022-11-27T03:06:30.951Z,83.47
2022-11-27T03:09:02.722Z,83.63
2022-11-27T03:11:32.589Z,83.52
2022-11-27T03:14:04.769Z,83.83
2022-11-27T03:16:58.049Z,83.47
2022-11-27T03:19:30.793Z,83.47
2022-11-27T03:21:59.870Z,83.58
2022-11-27T03:24:27.688Z,83.55
2022-11-27T03:26:54.622Z,83.50
2022-11-27T03:29:25.553Z,83.40
2022-11-27T03:31:54.069Z,83.57
2022-11-27T03:34:20.710Z,83.50
2022-11-27T03:36:52.732Z,83.45
2022-11-27T03:39:20.552Z,83.52
2022-11-27T03:41:55.502Z,83.68
2022-11-27T03:44:30.333Z,83.34
2022-11-27T03:47:10.768Z,83.24
2022-11-27T03:49:52.977Z,83.37
2022-11-27T03:52:30.221Z,83.35
2022-11-27T03:55:05.149Z,83.44
2022-11-27T03:57:37.777Z,83.21
2022-11-27T04:00:08.234Z,83.33
2022-11-27T04:02:43.382Z,83.15
2022-11-27T04:05:10.505Z,83.20
2022-11-27T04:07:37.538Z,83.14
2022-11-27T04:10:06.100Z,83.25
2022-11-27T04:12:32.805Z,83.27
2022-11-27T04:14:59.473Z,83.22
2022-11-27T04:17:26.184Z,83.27
2022-11-27T04:19:54.243Z,83.15
2022-11-27T04:22:21.013Z,83.10
2022-11-27T04:24:47.727Z,83.25
2022-11-27T04:27:14.437Z,83.11
2022-11-27T04:29:41.107Z,83.15
2022-11-27T04:32:07.869Z,83.20
2022-11-27T04:34:34.653Z,83.15
2022-11-27T04:37:03.510Z,83.15
2022-11-27T04:39:30.971Z,83.25
2022-11-27T04:41:57.680Z,83.03
2022-11-27T04:44:24.390Z,83.00
2022-11-27T04:46:51.103Z,82.92
2022-11-27T04:49:17.970Z,83.07
2022-11-27T04:51:45.925Z,83.04
2022-11-27T04:54:13.937Z,83.04
2022-11-27T04:56:40.619Z,82.92
2022-11-27T04:59:07.254Z,82.91
2022-11-27T05:01:33.912Z,83.01
2022-11-27T05:04:00.700Z,83.23
2022-11-27T05:06:27.416Z,82.98
2022-11-27T05:09:00.026Z,82.89
2022-11-27T05:11:28.910Z,82.78
2022-11-27T05:14:15.090Z,82.98
2022-11-27T05:16:42.473Z,82.94
2022-11-27T05:19:11.056Z,82.94
2022-11-27T05:21:38.712Z,82.94
2022-11-27T05:24:06.320Z,82.93
2022-11-27T05:26:34.811Z,82.80
2022-11-27T05:29:02.805Z,83.01
2022-11-27T05:31:29.590Z,82.88
2022-11-27T05:33:56.355Z,82.63
2022-11-27T05:36:23.235Z,82.85
2022-11-27T05:38:49.861Z,82.80
2022-11-27T05:41:16.827Z,82.97
2022-11-27T05:43:45.066Z,82.68
2022-11-27T05:46:14.795Z,82.66
2022-11-27T05:48:41.748Z,82.77
2022-11-27T05:51:08.638Z,82.82
2022-11-27T05:53:35.492Z,82.80
2022-11-27T05:56:03.430Z,82.64
2022-11-27T05:58:30.362Z,82.70
2022-11-27T06:01:00.261Z,82.69
2022-11-27T06:03:27.315Z,82.61
2022-11-27T06:05:55.854Z,82.60
2022-11-27T06:08:22.789Z,82.82
2022-11-27T06:10:50.131Z,82.62
2022-11-27T06:13:17.118Z,82.63
2022-11-27T06:15:44.014Z,82.62
2022-11-27T06:18:12.992Z,82.70
2022-11-27T06:20:43.703Z,82.62
2022-11-27T06:23:10.883Z,82.42
2022-11-27T06:25:37.504Z,82.56
2022-11-27T06:28:04.464Z,82.54
2022-11-27T06:30:31.137Z,82.38
2022-11-27T06:32:57.826Z,82.43
2022-11-27T06:35:26.078Z,82.47
2022-11-27T06:37:52.820Z,82.42
2022-11-27T06:40:19.452Z,82.36
2022-11-27T06:42:46.154Z,82.14
2022-11-27T06:45:14.124Z,82.41
2022-11-27T06:47:40.798Z,82.49
2022-11-27T06:50:08.299Z,82.33
2022-11-27T06:52:40.388Z,82.36
2022-11-27T06:55:08.207Z,82.41
2022-11-27T06:57:34.899Z,82.30
2022-11-27T07:00:02.122Z,82.36
2022-11-27T07:02:29.025Z,82.29
2022-11-27T07:04:55.742Z,82.22
2022-11-27T07:07:22.548Z,82.04
2022-11-27T07:09:50.606Z,82.25
2022-11-27T07:12:17.280Z,82.13
2022-11-27T07:14:43.909Z,82.21
2022-11-27T07:17:10.530Z,82.18
2022-11-27T07:19:37.228Z,82.08
2022-11-27T07:22:03.882Z,82.29
2022-11-27T07:24:30.632Z,82.23
2022-11-27T07:26:58.659Z,82.06
2022-11-27T07:29:25.480Z,82.20
2022-11-27T07:31:52.342Z,82.30
2022-11-27T07:34:21.697Z,81.99
2022-11-27T07:36:48.735Z,82.17
2022-11-27T07:39:25.271Z,82.18
2022-11-27T07:42:16.753Z,82.25
2022-11-27T07:44:48.972Z,82.47
2022-11-27T07:47:15.716Z,82.06
2022-11-27T07:49:42.381Z,82.37
2022-11-27T07:52:09.059Z,82.27
2022-11-27T07:54:36.191Z,82.21
2022-11-27T07:57:04.441Z,82.08
2022-11-27T07:59:31.096Z,82.16
2022-11-27T08:01:57.762Z,82.26
2022-11-27T08:04:24.483Z,82.21
2022-11-27T08:06:51.360Z,82.25
2022-11-27T08:09:18.049Z,82.43
2022-11-27T08:11:44.996Z,82.34
2022-11-27T08:14:14.230Z,82.36
2022-11-27T08:16:41.671Z,82.37
2022-11-27T08:19:09.770Z,82.46
2022-11-27T08:21:36.417Z,82.58
2022-11-27T08:24:03.301Z,82.64
2022-11-27T08:26:30.200Z,82.44
2022-11-27T08:28:58.095Z,82.55
2022-11-27T08:31:26.391Z,82.73
2022-11-27T08:33:53.083Z,82.78
2022-11-27T08:36:20.041Z,82.79
2022-11-27T08:38:47.125Z,82.88
2022-11-27T08:41:14.230Z,82.87
2022-11-27T08:43:40.855Z,82.89
2022-11-27T08:46:08.074Z,83.00
2022-11-27T08:48:36.460Z,82.90
2022-11-27T08:51:06.414Z,83.28
2022-11-27T08:53:33.173Z,83.17
2022-11-27T08:56:05.739Z,83.15
2022-11-27T08:58:32.518Z,83.38
2022-11-27T09:00:59.333Z,83.11
2022-11-27T09:03:26.036Z,83.09
2022-11-27T09:05:54.444Z,83.34
2022-11-27T09:08:21.463Z,83.25
2022-11-27T09:10:48.253Z,83.29
2022-11-27T09:13:14.916Z,83.44
2022-11-27T09:15:41.710Z,83.38
2022-11-27T09:18:08.585Z,83.52
2022-11-27T09:20:35.453Z,83.37
2022-11-27T09:23:03.741Z,83.46
2022-11-27T09:25:30.421Z,83.53
2022-11-27T09:27:57.512Z,83.56
2022-11-27T09:30:24.357Z,83.52
2022-11-27T09:32:52.502Z,83.68
2022-11-27T09:35:19.237Z,83.74
2022-11-27T09:37:45.933Z,83.78
2022-11-27T09:40:17.643Z,83.70
2022-11-27T09:42:50.413Z,83.61
2022-11-27T09:45:18.282Z,83.63
2022-11-27T09:47:51.436Z,83.55
2022-11-27T09:50:24.337Z,83.86
2022-11-27T09:52:54.747Z,83.72
2022-11-27T09:55:25.148Z,83.67
2022-11-27T09:58:02.153Z,83.43
2022-11-27T10:00:28.987Z,83.66
2022-11-27T10:02:55.800Z,83.78
2022-11-27T10:05:25.278Z,83.83
2022-11-27T10:08:09.333Z,83.82
2022-11-27T10:10:46.653Z,83.67
2022-11-27T10:13:33.077Z,83.80
2022-11-27T10:16:07.931Z,83.83
2022-11-27T10:18:40.508Z,83.70
2022-11-27T10:21:13.872Z,83.67
2022-11-27T10:23:48.360Z,83.82
2022-11-27T10:26:19.773Z,83.87
2022-11-27T10:28:55.627Z,83.99
2022-11-27T10:31:34.953Z,83.81
2022-11-27T10:34:04.471Z,83.62
2022-11-27T10:36:36.188Z,83.87
2022-11-27T10:39:06.694Z,83.80
2022-11-27T10:41:49.130Z,83.92
2022-11-27T10:44:30.178Z,83.97
2022-11-27T10:47:01.635Z,83.95
2022-11-27T10:49:28.386Z,83.92
2022-11-27T10:51:55.579Z,84.12
2022-11-27T10:54:26.634Z,84.16
2022-11-27T10:57:08.057Z,84.07
2022-11-27T10:59:39.639Z,84.00
2022-11-27T11:02:09.299Z,84.17
2022-11-27T11:04:48.430Z,84.03
2022-11-27T11:07:25.922Z,84.04
2022-11-27T11:09:53.828Z,84.02
2022-11-27T11:12:23.675Z,84.22
2022-11-27T11:14:51.968Z,83.98
2022-11-27T11:17:24.421Z,83.95
2022-11-27T11:19:51.495Z,84.25
2022-11-27T11:22:18.572Z,84.11
2022-11-27T11:24:50.133Z,84.05
2022-11-27T11:27:21.402Z,83.92
2022-11-27T11:29:52.859Z,84.18
2022-11-27T11:32:24.972Z,84.16
2022-11-27T11:35:00.538Z,84.07
2022-11-27T11:37:31.522Z,83.93
2022-11-27T11:40:04.052Z,84.07
2022-11-27T11:42:33.764Z,84.28
2022-11-27T11:45:06.191Z,84.05
2022-11-27T11:47:33.361Z,83.96
2022-11-27T11:50:01.260Z,84.22
2022-11-27T11:52:59.541Z,83.91
2022-11-27T11:55:32.993Z,84.16
2022-11-27T11:58:16.503Z,83.76
2022-11-27T12:01:18.985Z,83.94
2022-11-27T12:03:43.541Z,84.10
2022-11-27T12:06:24.584Z,84.02
2022-11-27T12:09:04.180Z,84.13
2022-11-27T12:11:39.416Z,84.22
2022-11-27T12:14:18.348Z,84.25
2022-11-27T12:17:02.589Z,84.38
2022-11-27T12:19:45.507Z,84.27
2022-11-27T12:22:21.784Z,84.14
2022-11-27T12:24:55.776Z,84.32
2022-11-27T12:27:32.433Z,84.27
2022-11-27T12:30:16.786Z,84.42
2022-11-27T12:33:07.233Z,84.59
2022-11-27T12:35:39.904Z,84.56
2022-11-27T12:38:19.902Z,84.57
2022-11-27T12:41:11.125Z,84.45
2022-11-27T12:43:41.189Z,84.50
2022-11-27T12:46:15.291Z,84.39
2022-11-27T12:48:47.584Z,84.57
2022-11-27T12:51:21.469Z,84.59
2022-11-27T12:53:55.091Z,84.41
2022-11-27T12:56:26.960Z,84.44
2022-11-27T12:58:57.322Z,84.40
2022-11-27T13:01:28.946Z,84.41
2022-11-27T13:04:11.242Z,84.52
2022-11-27T13:06:48.744Z,84.34
2022-11-27T13:09:24.743Z,84.44
2022-11-27T13:11:51.732Z,84.31
2022-11-27T13:14:20.810Z,84.46
2022-11-27T13:16:50.614Z,84.30
2022-11-27T13:19:25.459Z,84.37
2022-11-27T13:21:56.663Z,84.60
2022-11-27T13:24:25.188Z,84.21
2022-11-27T13:27:03.627Z,84.37
2022-11-27T13:29:36.385Z,84.62
2022-11-27T13:32:06.329Z,84.21
2022-11-27T13:34:44.049Z,84.48
2022-11-27T13:37:26.318Z,84.31
2022-11-27T13:40:00.119Z,84.34
2022-11-27T13:42:28.705Z,84.47
2022-11-27T13:44:57.344Z,84.39
2022-11-27T13:47:27.386Z,84.28
2022-11-27T13:50:04.261Z,84.41
2022-11-27T13:52:31.559Z,84.53
2022-11-27T13:55:00.403Z,84.37
2022-11-27T13:57:28.687Z,84.66
2022-11-27T13:59:58.752Z,84.54
2022-11-27T14:02:26.020Z,84.52
2022-11-27T14:04:56.429Z,84.42
2022-11-27T14:07:36.471Z,84.55
2022-11-27T14:10:10.018Z,84.59
2022-11-27T14:12:37.137Z,84.49
2022-11-27T14:15:08.183Z,84.72
2022-11-27T14:17:39.542Z,84.48
2022-11-27T14:20:21.210Z,84.40
2022-11-27T14:25:38.172Z,84.68
2022-11-27T14:28:14.536Z,84.51
2022-11-27T14:30:46.067Z,84.51
2022-11-27T14:33:31.271Z,84.61
2022-11-27T14:35:59.829Z,84.60
2022-11-27T14:38:32.900Z,84.72
2022-11-27T14:41:15.151Z,84.63
2022-11-27T14:43:41.915Z,84.55
2022-11-27T14:46:15.074Z,84.46
2022-11-27T14:48:45.068Z,84.68
2022-11-27T14:51:16.428Z,84.52
2022-11-27T14:53:46.262Z,84.60
2022-11-27T14:56:14.308Z,84.62
2022-11-27T14:58:48.323Z,84.49
2022-11-27T15:01:25.135Z,84.55
2022-11-27T15:03:57.322Z,84.59
2022-11-27T15:06:27.655Z,84.58
2022-11-27T15:09:23.633Z,84.77
2022-11-27T15:11:56.306Z,84.51
2022-11-27T15:14:25.540Z,84.97
2022-11-27T15:16:53.837Z,84.76
2022-11-27T15:19:30.917Z,84.88
2022-11-27T15:21:58.249Z,84.88
2022-11-27T15:24:32.017Z,84.91
2022-11-27T15:27:20.444Z,84.68
2022-11-27T15:30:01.742Z,84.95
2022-11-27T15:32:42.644Z,84.79
2022-11-27T15:35:14.340Z,85.08
2022-11-27T15:37:41.708Z,85.00
2022-11-27T15:40:26.948Z,84.84
2022-11-27T15:42:53.609Z,84.92
2022-11-27T15:45:20.276Z,85.03
2022-11-27T15:47:47.013Z,85.08
2022-11-27T15:50:15.216Z,85.00
2022-11-27T15:52:42.032Z,85.09
2022-11-27T15:55:15.824Z,85.08
2022-11-27T15:57:43.957Z,84.93
2022-11-27T16:00:13.148Z,85.14
2022-11-27T16:02:40.391Z,84.96
2022-11-27T16:05:08.620Z,85.09
2022-11-27T16:07:35.644Z,85.09
2022-11-27T16:10:02.437Z,85.37
2022-11-27T16:12:29.177Z,85.18
2022-11-27T16:14:57.266Z,85.29
2022-11-27T16:17:24.192Z,85.30
2022-11-27T16:19:51.283Z,85.19
2022-11-27T16:22:18.878Z,85.27
2022-11-27T16:24:45.671Z,85.22
2022-11-27T16:27:12.416Z,85.10
2022-11-27T16:29:39.217Z,85.15
2022-11-27T16:32:07.369Z,85.22
2022-11-27T16:34:34.180Z,85.19
2022-11-27T16:37:01.049Z,84.81
2022-11-27T16:39:27.839Z,84.94
2022-11-27T16:41:54.743Z,85.06
2022-11-27T16:44:21.453Z,85.09
2022-11-27T16:46:48.166Z,85.26
2022-11-27T16:49:16.335Z,85.32
2022-11-27T16:51:43.861Z,85.03
2022-11-27T16:54:12.561Z,85.12
2022-11-27T16:56:39.486Z,85.25
2022-11-27T16:59:08.768Z,84.92
2022-11-27T17:01:36.221Z,84.95
2022-11-27T17:04:04.748Z,84.91
2022-11-27T17:06:33.833Z,84.83
2022-11-27T17:09:01.832Z,84.96
2022-11-27T17:11:32.216Z,84.85
2022-11-27T17:14:00.275Z,84.89
2022-11-27T17:16:27.774Z,85.14
2022-11-27T17:18:54.556Z,84.95
2022-11-27T17:21:24.445Z,85.05
2022-11-27T17:23:55.110Z,84.90
2022-11-27T17:26:24.091Z,84.97
2022-11-27T17:28:51.662Z,84.94
2022-11-27T17:31:23.602Z,85.07
2022-11-27T17:33:52.572Z,84.90
2022-11-27T17:36:19.737Z,85.00
2022-11-27T17:38:46.523Z,84.98
2022-11-27T17:41:15.069Z,84.95
2022-11-27T17:43:42.225Z,84.87
2022-11-27T17:46:11.869Z,84.90
2022-11-27T17:48:38.841Z,84.88
2022-11-27T17:51:06.650Z,84.97
2022-11-27T17:53:33.732Z,84.99
2022-11-27T17:56:02.937Z,84.76
2022-11-27T17:58:31.280Z,84.96
2022-11-27T18:00:58.598Z,84.78
2022-11-27T18:03:25.556Z,84.75
2022-11-27T18:05:52.421Z,84.72
2022-11-27T18:08:19.142Z,84.71
2022-11-27T18:10:46.291Z,85.00
2022-11-27T18:13:13.058Z,84.65
2022-11-27T18:15:43.206Z,84.73
2022-11-27T18:18:10.182Z,84.87
2022-11-27T18:20:36.961Z,84.91
2022-11-27T18:23:04.391Z,84.96
2022-11-27T18:25:31.592Z,84.88
2022-11-27T18:27:58.724Z,84.99
2022-11-27T18:30:25.615Z,84.84
2022-11-27T18:32:53.702Z,85.03
2022-11-27T18:35:24.006Z,84.96
2022-11-27T18:37:51.260Z,85.12
2022-11-27T18:40:18.349Z,85.08
2022-11-27T18:42:45.080Z,85.17
2022-11-27T18:45:31.310Z,85.07
2022-11-27T18:48:00.016Z,84.93
2022-11-27T18:50:29.656Z,84.92
2022-11-27T18:52:56.672Z,85.06
2022-11-27T18:55:25.757Z,85.12
2022-11-27T18:57:53.231Z,85.38
2022-11-27T19:00:22.210Z,85.10
2022-11-27T19:02:49.001Z,85.28
2022-11-27T19:05:17.116Z,85.20
2022-11-27T19:07:44.130Z,85.09
2022-11-27T19:10:11.541Z,85.28
2022-11-27T19:12:38.175Z,85.25
2022-11-27T19:15:05.748Z,85.52
2022-11-27T19:17:32.706Z,85.50
2022-11-27T19:19:59.783Z,85.40
2022-11-27T19:22:28.184Z,85.30
2022-11-27T19:24:55.143Z,85.42
2022-11-27T19:27:21.924Z,85.33
2022-11-27T19:29:49.007Z,85.40
2022-11-27T19:32:15.718Z,85.33
2022-11-27T19:34:42.601Z,85.53
2022-11-27T19:37:10.095Z,85.68
2022-11-27T19:39:38.243Z,85.47
2022-11-27T19:42:05.157Z,85.44
2022-11-27T19:44:31.862Z,85.64
2022-11-27T19:46:58.866Z,85.69
2022-11-27T19:49:26.299Z,85.50
2022-11-27T19:51:58.947Z,85.75
2022-11-27T19:54:25.614Z,85.79
2022-11-27T19:56:53.981Z,85.61
2022-11-27T19:59:25.555Z,85.86
2022-11-27T20:01:52.619Z,85.71
2022-11-27T20:04:19.329Z,85.83
2022-11-27T20:06:46.160Z,85.79
2022-11-27T20:09:14.076Z,85.91
2022-11-27T20:11:40.798Z,85.87
2022-11-27T20:14:08.843Z,85.78
2022-11-27T20:16:37.714Z,85.71
2022-11-27T20:19:06.364Z,86.00
2022-11-27T20:21:33.543Z,85.88
2022-11-27T20:24:01.692Z,85.75
2022-11-27T20:26:30.527Z,85.95
2022-11-27T20:28:58.217Z,85.97
2022-11-27T20:31:28.479Z,85.75
2022-11-27T20:34:02.283Z,85.86
2022-11-27T20:36:30.533Z,85.86
2022-11-27T20:38:59.272Z,86.01
2022-11-27T20:41:27.085Z,86.01
2022-11-27T20:43:55.388Z,86.06
2022-11-27T20:46:22.135Z,85.95
2022-11-27T20:48:51.749Z,86.10
2022-11-27T20:51:21.172Z,86.17
2022-11-27T20:53:48.761Z,85.99
2022-11-27T20:56:17.561Z,86.21
2022-11-27T20:58:45.380Z,86.11
2022-11-27T21:01:17.012Z,85.96
2022-11-27T21:03:44.116Z,86.05
2022-11-27T21:06:12.236Z,86.24
2022-11-27T21:08:38.941Z,86.22
2022-11-27T21:11:10.286Z,86.06
2022-11-27T21:13:37.329Z,86.15
2022-11-27T21:16:06.877Z,86.21
2022-11-27T21:18:33.850Z,86.14
2022-11-27T21:21:05.519Z,86.26
2022-11-27T21:23:33.717Z,86.14
2022-11-27T21:26:00.433Z,86.13
2022-11-27T21:28:27.237Z,86.12
2022-11-27T21:30:55.861Z,86.26
2022-11-27T21:33:22.467Z,86.34
2022-11-27T21:35:55.886Z,86.15
2022-11-27T21:38:24.004Z,86.25
2022-11-27T21:40:52.232Z,86.22
2022-11-27T21:43:18.933Z,86.20
2022-11-27T21:45:45.637Z,86.12
2022-11-27T21:48:14.301Z,86.19
2022-11-27T21:50:41.294Z,86.18
2022-11-27T21:53:08.061Z,86.32
2022-11-27T21:55:39.445Z,86.31
2022-11-27T21:58:07.805Z,86.36
2022-11-27T22:00:34.891Z,86.32
2022-11-27T22:03:01.864Z,86.50
2022-11-27T22:05:28.706Z,86.35
2022-11-27T22:07:55.385Z,86.11
2022-11-27T22:10:22.159Z,86.13
2022-11-27T22:12:48.811Z,86.57
2022-11-27T22:15:16.994Z,86.37
2022-11-27T22:17:43.652Z,86.22
2022-11-27T22:20:11.379Z,86.30
2022-11-27T22:22:38.045Z,86.54
2022-11-27T22:25:05.772Z,86.44
2022-11-27T22:27:32.529Z,86.29
2022-11-27T22:29:59.421Z,86.42
2022-11-27T22:32:27.458Z,86.40
2022-11-27T22:34:54.134Z,86.52
2022-11-27T22:37:20.804Z,86.41
2022-11-27T22:39:52.848Z,86.39
2022-11-27T22:42:19.455Z,86.39
2022-11-27T22:44:46.350Z,86.43
2022-11-27T22:47:13.008Z,86.07
2022-11-27T22:49:41.066Z,86.42
2022-11-27T22:52:07.763Z,86.23
2022-11-27T22:54:34.710Z,86.26
2022-11-27T22:57:01.440Z,86.25
2022-11-27T22:59:33.163Z,86.40
2022-11-27T23:02:00.765Z,86.29
2022-11-27T23:04:27.510Z,86.21
2022-11-27T23:06:55.616Z,86.17
2022-11-27T23:09:22.582Z,86.19
2022-11-27T23:11:49.434Z,86.37
2022-11-27T23:14:16.559Z,86.35
2022-11-27T23:16:43.530Z,86.40
2022-11-27T23:19:10.812Z,86.47
2022-11-27T23:21:44.054Z,86.18
2022-11-27T23:24:15.280Z,86.24
2022-11-27T23:26:42.345Z,86.20
2022-11-27T23:29:09.347Z,86.07
2022-11-27T23:31:36.514Z,86.07
2022-11-27T23:34:05.478Z,86.29
2022-11-27T23:36:33.343Z,86.00
2022-11-27T23:39:01.023Z,86.21
2022-11-27T23:41:29.745Z,86.28
2022-11-27T23:44:15.159Z,86.18
2022-11-27T23:46:42.641Z,86.12
2022-11-27T23:49:09.347Z,86.08
2022-11-27T23:51:36.511Z,86.19
2022-11-27T23:54:07.771Z,86.10
2022-11-27T23:56:37.288Z,86.32
2022-11-27T23:59:04.273Z,85.96
